»·PEaware :: N266EA KNRS-KSAN

N266EA :: KNRS-KSAN

FLIGHT INFORMATION

Flight Status: Arrived
Operator: Privately registered:
United States
More flights under this callsign
Pilot: Ben H. (9170)
Aircraft: BEECH AIRCRAFT BARON
(BE58)
More flights by this aircraft type
Origin: KNRS Imperial Beach NOLF
United States
Destination: KSAN San Diego Intl-Lindbergh
United States
More flights between these airports :: More routes between these airports
Route: + NRS MZB V66 RYAHH
File this flight plan on PilotEdge
Remarks:
Altitude:
(Current/Filed)
4,000ft
Speed:
(Current/Filed)
170kts
Departed: 13-Jul-19 07:34 AM
Arrived: 13-Jul-19 07:54 AM
Distance/Time
Traveled:
10nm/0:20
Distance/Time
To Go:
Arrived

Flight Plot

Page will automatically refresh every two minutes.

Flight plan parsing failed; only flown route is shown


Map Options




Map Legend


Flown Route
Filed Route
Departure Airport
Arrival Airport
Navaid (VOR, NDB)
Fix

Horizontal Profiles

Position Reports

Time Latitude Longitude Heading Altitude Ground
Speed
13-Jul-19 07:09 32.566864 -117.108792 191 27ft 0kts
13-Jul-19 07:10 32.566864 -117.108792 191 27ft 0kts
13-Jul-19 07:11 32.566864 -117.108792 191 27ft 0kts
13-Jul-19 07:12 32.566864 -117.108792 191 27ft 0kts
13-Jul-19 07:13 32.566864 -117.108792 191 27ft 0kts
13-Jul-19 07:14 32.566864 -117.108792 191 27ft 0kts
13-Jul-19 07:15 32.566864 -117.108792 191 27ft 0kts
13-Jul-19 07:16 32.566864 -117.108792 191 27ft 0kts
13-Jul-19 07:17 32.566864 -117.108792 191 27ft 0kts
13-Jul-19 07:18 32.566864 -117.108792 191 27ft 0kts
13-Jul-19 07:19 32.566864 -117.108792 191 27ft 0kts
13-Jul-19 07:20 32.566864 -117.108792 191 27ft 0kts
13-Jul-19 07:21 32.566864 -117.108792 191 27ft 0kts
13-Jul-19 07:22 32.566864 -117.108792 191 27ft 0kts
13-Jul-19 07:23 32.566864 -117.108792 191 27ft 0kts
13-Jul-19 07:24 32.566864 -117.108792 191 27ft 0kts
13-Jul-19 07:25 32.566864 -117.108792 191 27ft 0kts
13-Jul-19 07:26 32.566864 -117.108792 191 27ft 0kts
13-Jul-19 07:27 32.566864 -117.108792 191 27ft 0kts
13-Jul-19 07:28 32.566864 -117.108792 191 27ft 0kts
13-Jul-19 07:29 32.566864 -117.108792 191 27ft 0kts
13-Jul-19 07:30 32.566072 -117.107142 114 27ft 7kts
13-Jul-19 07:31 32.565026 -117.106983 199 27ft 0kts
13-Jul-19 07:32 32.564493 -117.107716 282 27ft 17kts
13-Jul-19 07:33 32.571398 -117.139294 297 1079ft 101kts
13-Jul-19 07:34 32.598347 -117.136556 6 2296ft 115kts
13-Jul-19 07:35 32.632446 -117.146161 337 3046ft 152kts
13-Jul-19 07:36 32.672108 -117.167156 335 3827ft 153kts
13-Jul-19 07:37 32.713678 -117.189203 335 4030ft 175kts
13-Jul-19 07:38 32.760276 -117.207485 11 4027ft 180kts
13-Jul-19 07:39 32.781657 -117.160435 90 4010ft 179kts
13-Jul-19 07:40 32.780856 -117.102142 91 4009ft 171kts
13-Jul-19 07:41 32.779077 -117.043714 92 4009ft 179kts
13-Jul-19 07:42 32.777520 -116.984614 92 4008ft 176kts
13-Jul-19 07:43 32.776163 -116.926769 92 4054ft 178kts
13-Jul-19 07:44 32.757495 -116.884454 177 4809ft 165kts
13-Jul-19 07:45 32.710298 -116.881333 176 5010ft 175kts
13-Jul-19 07:46 32.676559 -116.918834 249 4363ft 188kts
13-Jul-19 07:47 32.682026 -116.977901 284 3596ft 171kts
13-Jul-19 07:48 32.694855 -117.031550 286 2888ft 167kts
13-Jul-19 07:49 32.708055 -117.084465 285 1984ft 161kts
13-Jul-19 07:50 32.718013 -117.125529 285 1186ft 120kts
13-Jul-19 07:51 32.726130 -117.159229 286 451ft 94kts
13-Jul-19 07:52 32.732877 -117.186930 291 20ft 48kts
13-Jul-19 07:53 32.734117 -117.187952 54 20ft 10kts
13-Jul-19 07:54 32.732513 -117.180593 106 20ft 25kts
13-Jul-19 07:55 32.732336 -117.177957 60 20ft 0kts
13-Jul-19 07:56 32.732336 -117.177957 60 20ft 0kts
13-Jul-19 07:57 32.732336 -117.177957 60 20ft 0kts
13-Jul-19 07:58 32.732336 -117.177957 60 20ft 0kts
13-Jul-19 07:59 32.732336 -117.177957 60 20ft 0kts
13-Jul-19 08:00 32.732336 -117.177957 60 20ft 0kts
13-Jul-19 08:01 32.732336 -117.177957 60 20ft 0kts

Navigation Log

Ident Type
Flight plan parsing failed, navigation log unavailable